Time;durP1;ratioP1;P1;durP2;ratioP2;P2;SDS_P1;SDS_P2;PMS_P1;PMS_P2;Temp;Humidity;BMP_temperature;BMP_pressure;BME280_temperature;BME280_humidity;BME280_pressure;Samples;Min_cycle;Max_cycle;Signal;HPM_P1;HPM_P2
2024/01/30 00:02:09;;;;;;;;;;;;;;;17.39;35.27;102946.78;4901475;29;1079;-47
2024/01/30 00:04:35;;;;;;;;;;;;;;;16.06;37.63;102953.56;4884012;29;1978;-48
2024/01/30 00:07:00;;;;;;;;;;;;;;;16.32;37.13;102954.38;4893932;29;1091;-47
2024/01/30 00:09:26;;;;;;;;;;;;;;;17.11;35.40;102955.91;4896794;29;1109;-46
2024/01/30 00:11:51;;;;;;;;;;;;;;;15.94;37.93;102937.09;4883478;29;943;-48
2024/01/30 00:14:17;;;;;;;;;;;;;;;16.21;37.45;102938.88;4899458;29;1190;-47
2024/01/30 00:16:42;;;;;;;;;;;;;;;16.29;36.90;102939.44;4900976;29;1178;-48
2024/01/30 00:19:08;;;;;;;;;;;;;;;15.55;38.33;102925.16;4900524;29;1093;-44
2024/01/30 00:21:34;;;;;;;;;;;;;;;17.63;34.99;102939.56;4901157;29;1054;-45
2024/01/30 00:23:59;;;;;;;;;;;;;;;16.19;37.41;102933.59;4884013;29;1918;-47
2024/01/30 00:26:25;;;;;;;;;;;;;;;15.60;38.61;102935.63;4892654;29;1054;-44
2024/01/30 00:28:50;;;;;;;;;;;;;;;17.55;35.17;102939.03;4884342;29;1021;-49
2024/01/30 00:31:16;;;;;;;;;;;;;;;16.26;36.89;102944.88;4893144;29;1022;-49
2024/01/30 00:33:41;;;;;;;;;;;;;;;15.75;38.18;102945.69;4896641;29;1158;-48
2024/01/30 00:36:07;;;;;;;;;;;;;;;17.32;35.26;102946.19;4882506;29;865;-49
2024/01/30 00:38:33;;;;;;;;;;;;;;;16.09;37.47;102935.72;4898523;29;1167;-46
2024/01/30 00:40:58;;;;;;;;;;;;;;;15.51;38.91;102942.97;4890287;29;1109;-49
2024/01/30 00:43:27;;;;;;;;;;;;;;;17.53;35.18;102932.94;4882350;29;1090;-50
2024/01/30 00:45:52;;;;;;;;;;;;;;;16.33;37.13;102940.22;4893072;29;1906;-49
2024/01/30 00:48:18;;;;;;;;;;;;;;;15.71;38.07;102944.09;4895504;29;1197;-49
2024/01/30 00:50:44;;;;;;;;;;;;;;;16.68;36.71;102935.38;4907651;29;1257;-45
2024/01/30 00:53:09;;;;;;;;;;;;;;;15.73;38.09;102944.03;4901093;29;1174;-50
2024/01/30 00:55:35;;;;;;;;;;;;;;;16.72;36.85;102936.09;4900935;29;1046;-47
2024/01/30 00:58:00;;;;;;;;;;;;;;;17.34;35.17;102940.78;4899141;29;1146;-49
2024/01/30 01:00:28;;;;;;;;;;;;;;;16.05;37.58;102933.25;4900479;29;906;-47
2024/01/30 01:02:55;;;;;;;;;;;;;;;15.60;38.34;102933.81;4896568;29;1026;-47
2024/01/30 01:05:20;;;;;;;;;;;;;;;15.47;38.79;102937.78;4891926;29;1914;-48
2024/01/30 01:07:47;;;;;;;;;;;;;;;17.58;35.05;102930.91;4884357;29;1138;-48
2024/01/30 01:10:13;;;;;;;;;;;;;;;15.99;37.94;102927.22;4882024;29;1055;-44
2024/01/30 01:12:39;;;;;;;;;;;;;;;15.63;38.78;102928.41;4885254;29;1162;-50
2024/01/30 01:15:05;;;;;;;;;;;;;;;17.70;34.86;102934.00;4882103;29;1113;-47
2024/01/30 01:17:31;;;;;;;;;;;;;;;16.13;37.38;102917.91;4886035;29;1134;-47
2024/01/30 01:19:57;;;;;;;;;;;;;;;15.54;38.91;102923.41;4889298;29;1043;-44
2024/01/30 01:22:22;;;;;;;;;;;;;;;17.05;36.11;102921.56;4899015;29;1171;-47
2024/01/30 01:24:48;;;;;;;;;;;;;;;16.50;36.98;102923.63;4900057;29;1919;-49
2024/01/30 01:27:13;;;;;;;;;;;;;;;15.63;38.41;102925.75;4888035;29;1085;-50
2024/01/30 01:29:39;;;;;;;;;;;;;;;15.37;39.27;102926.63;4900439;29;831;-46
2024/01/30 01:32:05;;;;;;;;;;;;;;;16.67;36.80;102920.31;4900625;29;1217;-46
2024/01/30 01:34:31;;;;;;;;;;;;;;;15.77;38.34;102905.84;4900064;29;1158;-46
2024/01/30 01:36:56;;;;;;;;;;;;;;;16.61;36.97;102894.00;4902563;29;1078;-47
2024/01/30 01:39:23;;;;;;;;;;;;;;;17.29;35.36;102889.56;4903867;29;1058;-50
2024/01/30 01:41:48;;;;;;;;;;;;;;;15.86;38.02;102891.38;4898809;29;1078;-51
2024/01/30 01:44:14;;;;;;;;;;;;;;;15.47;38.98;102895.34;4895959;29;1997;-46
2024/01/30 01:46:39;;;;;;;;;;;;;;;16.87;36.67;102894.75;4903219;29;1047;-47
2024/01/30 01:49:05;;;;;;;;;;;;;;;16.02;37.71;102897.03;4899007;29;998;-47
2024/01/30 01:51:31;;;;;;;;;;;;;;;15.93;38.02;102889.38;4903231;29;1050;-47
2024/01/30 01:53:58;;;;;;;;;;;;;;;17.07;35.62;102895.75;4893139;29;1141;-46
2024/01/30 01:56:23;;;;;;;;;;;;;;;15.78;38.18;102891.66;4915953;29;1150;-44
2024/01/30 01:58:49;;;;;;;;;;;;;;;17.35;35.39;102884.84;4893974;29;1050;-49
2024/01/30 02:01:14;;;;;;;;;;;;;;;16.53;36.77;102892.50;4889049;29;1460;-48
2024/01/30 02:03:41;;;;;;;;;;;;;;;15.70;38.49;102885.75;4902575;29;1016;-47
2024/01/30 02:06:06;;;;;;;;;;;;;;;17.17;35.79;102891.81;4903086;29;1911;-48
2024/01/30 02:08:32;;;;;;;;;;;;;;;15.88;38.03;102897.50;4907995;29;1129;-47
2024/01/30 02:10:57;;;;;;;;;;;;;;;15.47;39.04;102901.53;4914977;29;1059;-46
2024/01/30 02:13:23;;;;;;;;;;;;;;;17.01;35.89;102910.16;4903003;29;976;-47
2024/01/30 02:15:49;;;;;;;;;;;;;;;15.70;38.29;102905.19;4899502;29;1007;-48
2024/01/30 02:18:14;;;;;;;;;;;;;;;16.68;36.93;102905.25;4884833;29;1114;-46
2024/01/30 02:20:40;;;;;;;;;;;;;;;16.46;36.82;102903.41;4884518;29;1074;-45
2024/01/30 02:23:05;;;;;;;;;;;;;;;15.59;38.89;102889.66;4894577;29;1113;-50
2024/01/30 02:25:32;;;;;;;;;;;;;;;16.68;37.02;102891.97;4913521;29;1911;-48
2024/01/30 02:27:58;;;;;;;;;;;;;;;16.28;37.33;102898.72;4884802;29;1063;-48
2024/01/30 02:30:23;;;;;;;;;;;;;;;15.48;39.06;102900.59;4887606;29;1173;-48
2024/01/30 02:32:49;;;;;;;;;;;;;;;17.58;35.18;102893.66;4902775;29;1273;-50
2024/01/30 02:35:14;;;;;;;;;;;;;;;16.22;37.27;102904.28;4887329;29;1117;-47
2024/01/30 02:37:40;;;;;;;;;;;;;;;15.52;39.11;102891.63;4901035;29;921;-46
2024/01/30 02:40:06;;;;;;;;;;;;;;;17.71;34.86;102888.69;4899684;29;1050;-47
2024/01/30 02:42:31;;;;;;;;;;;;;;;16.18;37.82;102885.88;4893496;29;1201;-45
2024/01/30 02:44:57;;;;;;;;;;;;;;;17.08;36.16;102901.00;4887238;29;1918;-46
2024/01/30 02:47:22;;;;;;;;;;;;;;;17.05;35.66;102895.81;4883213;29;1105;-47
2024/01/30 02:49:48;;;;;;;;;;;;;;;15.96;38.20;102891.94;4888088;29;1174;-48
2024/01/30 02:52:13;;;;;;;;;;;;;;;15.70;38.68;102899.88;4893523;29;1042;-45
2024/01/30 02:54:39;;;;;;;;;;;;;;;17.18;35.74;102906.88;4883581;29;1102;-44
2024/01/30 02:57:04;;;;;;;;;;;;;;;15.82;38.22;102900.38;4893701;29;1225;-42
2024/01/30 02:59:33;;;;;;;;;;;;;;;16.71;36.83;102906.00;4900082;29;1033;-48
2024/01/30 03:01:59;;;;;;;;;;;;;;;16.95;36.03;102913.94;4885750;29;1043;-44
2024/01/30 03:04:24;;;;;;;;;;;;;;;15.90;38.16;102907.16;4896709;29;1894;-45
2024/01/30 03:06:50;;;;;;;;;;;;;;;15.49;39.11;102910.31;4902286;29;1403;-46
2024/01/30 03:09:16;;;;;;;;;;;;;;;17.47;35.59;102919.84;4902146;29;1150;-44
2024/01/30 03:11:42;;;;;;;;;;;;;;;16.51;36.80;102923.59;4901975;29;1464;-49
2024/01/30 03:14:10;;;;;;;;;;;;;;;15.68;38.36;102920.31;4901439;29;1031;-47
2024/01/30 03:16:36;;;;;;;;;;;;;;;17.18;35.48;102916.63;4894774;29;1081;-46
2024/01/30 03:19:03;;;;;;;;;;;;;;;15.84;37.93;102917.09;4883758;29;1043;-47
2024/01/30 03:21:29;;;;;;;;;;;;;;;15.63;38.72;102903.69;4890977;29;1425;-48
2024/01/30 03:23:54;;;;;;;;;;;;;;;16.76;36.71;102913.81;4901439;29;1169;-46
2024/01/30 03:26:20;;;;;;;;;;;;;;;17.68;34.58;102910.13;4890740;29;1986;-48
2024/01/30 03:28:45;;;;;;;;;;;;;;;16.15;37.54;102914.25;4888276;29;1062;-49
2024/01/30 03:31:13;;;;;;;;;;;;;;;15.67;38.97;102915.91;4883252;29;1062;-43
2024/01/30 03:33:39;;;;;;;;;;;;;;;17.79;34.74;102908.75;4882828;29;1035;-45
2024/01/30 03:36:04;;;;;;;;;;;;;;;16.09;37.77;102910.97;4884104;29;1118;-44
2024/01/30 03:38:32;;;;;;;;;;;;;;;16.99;36.47;102918.22;4900294;29;1121;-44
2024/01/30 03:40:58;;;;;;;;;;;;;;;16.97;36.10;102916.53;4891180;29;1202;-44
2024/01/30 03:43:23;;;;;;;;;;;;;;;15.93;38.29;102911.50;4901758;29;1062;-47
2024/01/30 03:45:49;;;;;;;;;;;;;;;17.31;35.66;102907.22;4893803;29;1976;-47
2024/01/30 03:48:14;;;;;;;;;;;;;;;16.61;36.54;102909.94;4895048;29;1103;-47
2024/01/30 03:50:40;;;;;;;;;;;;;;;16.67;37.07;102907.03;4900607;29;1022;-45
2024/01/30 03:53:06;;;;;;;;;;;;;;;17.95;34.09;102901.00;4900098;29;1074;-44
2024/01/30 03:55:31;;;;;;;;;;;;;;;16.32;37.22;102903.94;4890012;29;1063;-40
2024/01/30 03:57:57;;;;;;;;;;;;;;;15.72;38.56;102900.69;4897742;29;1245;-42
2024/01/30 04:00:22;;;;;;;;;;;;;;;17.16;35.73;102895.41;4890393;29;1050;-44
2024/01/30 04:02:48;;;;;;;;;;;;;;;15.85;38.20;102887.84;4898139;29;1170;-46
2024/01/30 04:05:13;;;;;;;;;;;;;;;15.52;38.79;102881.03;4901039;29;1911;-45
2024/01/30 04:07:39;;;;;;;;;;;;;;;17.31;35.67;102885.06;4900952;29;1210;-48
2024/01/30 04:10:07;;;;;;;;;;;;;;;16.00;37.71;102882.94;4888740;29;1149;-45
2024/01/30 04:12:33;;;;;;;;;;;;;;;16.37;37.45;102872.75;4900870;29;1162;-49
2024/01/30 04:14:58;;;;;;;;;;;;;;;16.66;36.65;102889.38;4900780;29;1117;-46
2024/01/30 04:17:24;;;;;;;;;;;;;;;15.78;38.16;102883.72;4901066;29;1031;-44
2024/01/30 04:19:49;;;;;;;;;;;;;;;17.57;35.17;102891.06;4901461;29;1042;-44
2024/01/30 04:22:15;;;;;;;;;;;;;;;16.19;37.37;102890.25;4890156;29;1041;-50
2024/01/30 04:24:40;;;;;;;;;;;;;;;15.66;38.50;102899.09;4898755;29;1911;-44
2024/01/30 04:27:06;;;;;;;;;;;;;;;17.03;36.47;102892.38;4890055;29;1109;-46
2024/01/30 04:29:32;;;;;;;;;;;;;;;16.24;37.38;102882.97;4899759;29;1051;-44
2024/01/30 04:31:58;;;;;;;;;;;;;;;15.56;38.64;102881.78;4898640;29;1161;-44
2024/01/30 04:34:23;;;;;;;;;;;;;;;17.10;36.21;102872.59;4890414;29;1075;-42
2024/01/30 04:36:49;;;;;;;;;;;;;;;15.94;37.89;102880.50;4899031;29;1189;-42
2024/01/30 04:39:14;;;;;;;;;;;;;;;15.42;39.20;102883.13;4882340;29;1006;-45
2024/01/30 04:41:40;;;;;;;;;;;;;;;15.69;38.58;102887.53;4896360;29;1194;-44
2024/01/30 04:44:05;;;;;;;;;;;;;;;16.98;36.16;102897.00;4901380;29;1935;-42
2024/01/30 04:46:31;;;;;;;;;;;;;;;17.31;35.62;102895.69;4900500;29;1053;-43
2024/01/30 04:48:56;;;;;;;;;;;;;;;16.78;36.17;102898.66;4892804;29;1305;-46
2024/01/30 04:51:22;;;;;;;;;;;;;;;15.90;37.92;102907.16;4884009;29;1022;-45
2024/01/30 04:53:47;;;;;;;;;;;;;;;15.43;39.31;102905.22;4900376;29;1194;-44
2024/01/30 04:56:13;;;;;;;;;;;;;;;17.49;35.38;102904.69;4889243;29;1042;-48
2024/01/30 04:58:38;;;;;;;;;;;;;;;16.15;37.79;102908.06;4892079;29;1162;-49
2024/01/30 05:01:04;;;;;;;;;;;;;;;15.53;38.51;102917.25;4896211;29;1201;-50
2024/01/30 05:03:32;;;;;;;;;;;;;;;17.19;35.60;102913.91;4900431;29;1033;-48
2024/01/30 05:05:58;;;;;;;;;;;;;;;15.81;38.27;102910.13;4896639;29;1973;-46
2024/01/30 05:08:23;;;;;;;;;;;;;;;15.35;39.20;102915.22;4890249;29;1039;-44
2024/01/30 05:10:49;;;;;;;;;;;;;;;17.55;35.09;102909.75;4902822;29;1102;-46
2024/01/30 05:13:14;;;;;;;;;;;;;;;16.23;37.32;102908.66;4899681;29;1146;-47
2024/01/30 05:15:40;;;;;;;;;;;;;;;15.64;38.78;102905.41;4901482;29;1105;-46
2024/01/30 05:18:05;;;;;;;;;;;;;;;16.34;37.53;102899.44;4904556;29;1082;-47
2024/01/30 05:20:31;;;;;;;;;;;;;;;16.62;36.33;102888.63;4903746;29;1121;-45
2024/01/30 05:22:56;;;;;;;;;;;;;;;16.24;37.26;102899.78;4903773;29;1070;-48
2024/01/30 05:25:23;;;;;;;;;;;;;;;15.97;37.44;102896.28;4902432;29;1918;-45
2024/01/30 05:27:49;;;;;;;;;;;;;;;15.77;38.09;102895.22;4903993;29;1049;-44
2024/01/30 05:30:14;;;;;;;;;;;;;;;15.58;38.40;102887.06;4888307;29;1178;-47
2024/01/30 05:32:40;;;;;;;;;;;;;;;15.40;38.77;102892.91;4885599;29;1072;-44
2024/01/30 05:35:07;;;;;;;;;;;;;;;15.54;38.78;102903.06;4900581;29;1062;-47
2024/01/30 05:37:33;;;;;;;;;;;;;;;17.04;35.79;102914.47;4897930;29;1010;-44
2024/01/30 05:39:58;;;;;;;;;;;;;;;16.72;35.85;102912.16;4888601;29;1078;-46
2024/01/30 05:42:24;;;;;;;;;;;;;;;15.98;37.46;102920.16;4895039;29;1178;-42
2024/01/30 05:44:50;;;;;;;;;;;;;;;15.66;38.01;102924.78;4887665;29;1978;-45
2024/01/30 05:47:15;;;;;;;;;;;;;;;15.38;38.79;102931.03;4903779;29;1057;-47
2024/01/30 05:49:41;;;;;;;;;;;;;;;16.52;36.51;102940.38;4897793;29;1131;-49
2024/01/30 05:52:07;;;;;;;;;;;;;;;17.30;34.85;102939.22;4893861;29;1174;-46
2024/01/30 05:54:32;;;;;;;;;;;;;;;16.26;36.85;102939.56;4903156;29;1077;-46
2024/01/30 05:56:57;;;;;;;;;;;;;;;15.75;37.91;102940.38;4895541;29;1402;-47
2024/01/30 05:59:23;;;;;;;;;;;;;;;15.49;38.20;102946.56;4897055;29;1292;-46
2024/01/30 06:01:48;;;;;;;;;;;;;;;16.46;36.87;102954.78;4892863;29;1067;-46
2024/01/30 06:04:14;;;;;;;;;;;;;;;17.32;34.97;102940.84;4901728;29;1980;-49
2024/01/30 06:06:40;;;;;;;;;;;;;;;16.29;36.60;102947.41;4901908;29;1232;-45
2024/01/30 06:09:05;;;;;;;;;;;;;;;15.76;37.61;102951.88;4902673;29;1082;-48
2024/01/30 06:11:31;;;;;;;;;;;;;;;15.58;38.13;102951.56;4903531;29;1027;-47
2024/01/30 06:13:56;;;;;;;;;;;;;;;16.54;36.41;102951.81;4898854;29;1061;-48
2024/01/30 06:16:22;;;;;;;;;;;;;;;17.49;34.79;102956.13;4903314;29;1051;-46
2024/01/30 06:18:48;;;;;;;;;;;;;;;16.53;36.46;102966.03;4889464;29;1146;-44
2024/01/30 06:21:13;;;;;;;;;;;;;;;16.00;37.12;102966.13;4890279;29;1063;-46
2024/01/30 06:23:39;;;;;;;;;;;;;;;15.62;37.91;102973.56;4902508;29;1066;-47
2024/01/30 06:26:06;;;;;;;;;;;;;;;15.85;37.79;102985.22;4902300;29;1998;-47
2024/01/30 06:28:31;;;;;;;;;;;;;;;17.25;35.11;102979.25;4902829;29;1096;-49
2024/01/30 06:30:57;;;;;;;;;;;;;;;16.87;35.64;102977.16;4895580;29;1232;-49
2024/01/30 06:33:22;;;;;;;;;;;;;;;16.10;37.14;102973.78;4897909;29;1063;-49
2024/01/30 06:35:48;;;;;;;;;;;;;;;15.71;37.99;102975.94;4895871;29;1137;-48
2024/01/30 06:38:15;;;;;;;;;;;;;;;15.49;38.16;102973.09;4891261;29;1206;-44
2024/01/30 06:40:41;;;;;;;;;;;;;;;16.85;35.90;102976.38;4902895;29;1097;-46
2024/01/30 06:43:07;;;;;;;;;;;;;;;17.36;34.88;102977.06;4902911;29;1245;-39
2024/01/30 06:45:34;;;;;;;;;;;;;;;16.35;36.98;102973.75;4901291;29;1983;-44
2024/01/30 06:48:00;;;;;;;;;;;;;;;15.90;37.51;102970.84;4902382;29;1163;-49
2024/01/30 06:50:25;;;;;;;;;;;;;;;15.55;38.13;102976.41;4901975;29;1142;-46
2024/01/30 06:52:51;;;;;;;;;;;;;;;15.78;37.76;102977.44;4901918;29;1117;-47
2024/01/30 06:55:16;;;;;;;;;;;;;;;17.19;35.44;102987.50;4903045;29;1042;-48
2024/01/30 06:57:42;;;;;;;;;;;;;;;16.92;35.42;102982.28;4890369;29;1170;-44
2024/01/30 07:00:08;;;;;;;;;;;;;;;16.11;37.00;102978.16;4901783;29;1339;-47
2024/01/30 07:02:33;;;;;;;;;;;;;;;15.72;37.94;102987.38;4894309;29;1391;-47
2024/01/30 07:04:59;;;;;;;;;;;;;;;15.52;38.19;102975.66;4899695;29;1910;-45
2024/01/30 07:07:24;;;;;;;;;;;;;;;17.01;35.47;102984.63;4902340;29;1046;-43
2024/01/30 07:09:55;;;;;;;;;;;;;;;17.35;34.69;102983.28;4902293;29;1086;-43
2024/01/30 07:12:21;;;;;;;;;;;;;;;16.28;36.99;102985.53;4902465;29;1312;-40
2024/01/30 07:14:46;;;;;;;;;;;;;;;15.90;37.63;102991.22;4900109;29;1082;-42
2024/01/30 07:17:12;;;;;;;;;;;;;;;15.51;38.16;102989.84;4901833;29;1237;-48
2024/01/30 07:19:37;;;;;;;;;;;;;;;16.57;36.56;102996.88;4902073;29;1046;-47
2024/01/30 07:22:03;;;;;;;;;;;;;;;17.39;34.88;103002.66;4901683;29;1114;-42
2024/01/30 07:24:29;;;;;;;;;;;;;;;16.41;36.43;102993.91;4901695;29;1978;-48
2024/01/30 07:26:55;;;;;;;;;;;;;;;15.89;37.68;102994.78;4899780;29;1133;-44
2024/01/30 07:29:21;;;;;;;;;;;;;;;15.66;38.15;102991.13;4901505;29;1098;-44
2024/01/30 07:31:47;;;;;;;;;;;;;;;16.17;37.13;102983.25;4900862;29;1158;-43
2024/01/30 07:34:12;;;;;;;;;;;;;;;17.34;35.10;102980.69;4898380;29;1089;-47
2024/01/30 07:36:38;;;;;;;;;;;;;;;16.87;35.76;102979.81;4883011;29;1089;-49
2024/01/30 07:39:04;;;;;;;;;;;;;;;16.12;37.18;102983.41;4885229;29;1190;-47
2024/01/30 07:41:29;;;;;;;;;;;;;;;15.67;38.05;102977.81;4893460;29;1121;-45
2024/01/30 07:43:54;;;;;;;;;;;;;;;15.59;38.02;102978.97;4901268;29;1282;-44
2024/01/30 07:46:20;;;;;;;;;;;;;;;17.04;35.71;102971.19;4900729;29;1907;-44
2024/01/30 07:48:45;;;;;;;;;;;;;;;16.99;35.34;102974.03;4901737;29;1144;-47
2024/01/30 07:51:11;;;;;;;;;;;;;;;16.16;36.99;102963.78;4890279;29;1058;-42
2024/01/30 07:53:37;;;;;;;;;;;;;;;15.69;37.93;102961.84;4882701;29;1218;-40
2024/01/30 07:56:02;;;;;;;;;;;;;;;15.51;38.11;102964.19;4892091;29;1138;-45
2024/01/30 07:58:28;;;;;;;;;;;;;;;16.86;35.60;102983.41;4900692;29;1300;-46
2024/01/30 08:00:53;;;;;;;;;;;;;;;17.14;35.03;102987.69;4888869;29;1114;-46
2024/01/30 08:03:19;;;;;;;;;;;;;;;16.32;36.68;102975.63;4890608;29;903;-47
2024/01/30 08:05:44;;;;;;;;;;;;;;;15.85;37.63;102980.75;4895954;29;1911;-46
2024/01/30 08:08:10;;;;;;;;;;;;;;;15.55;38.02;102981.72;4901598;29;1054;-49
2024/01/30 08:10:36;;;;;;;;;;;;;;;16.99;35.47;102983.81;4901473;29;1176;-47
2024/01/30 08:13:01;;;;;;;;;;;;;;;17.21;34.90;102988.31;4901043;29;1124;-41
2024/01/30 08:15:27;;;;;;;;;;;;;;;16.30;36.68;102980.16;4900568;29;1077;-44
2024/01/30 08:17:57;;;;;;;;;;;;;;;15.85;37.78;102990.53;4901304;29;1059;-43
2024/01/30 08:20:23;;;;;;;;;;;;;;;15.57;38.42;102978.16;4886817;29;1074;-42
2024/01/30 08:22:49;;;;;;;;;;;;;;;16.01;37.36;102986.44;4890054;29;1053;-45
2024/01/30 08:25:14;;;;;;;;;;;;;;;17.24;35.02;102985.53;4900977;29;1907;-51
2024/01/30 08:27:40;;;;;;;;;;;;;;;16.83;35.63;102987.03;4896847;29;864;-45
2024/01/30 08:30:06;;;;;;;;;;;;;;;16.15;37.17;102990.38;4900688;29;1101;-48
2024/01/30 08:32:32;;;;;;;;;;;;;;;15.73;37.81;102986.50;4900456;29;1221;-45
2024/01/30 08:34:57;;;;;;;;;;;;;;;16.06;37.40;102994.25;4887501;29;1038;-43
2024/01/30 08:37:23;;;;;;;;;;;;;;;17.29;34.99;102983.56;4882464;29;1007;-43
2024/01/30 08:39:48;;;;;;;;;;;;;;;16.73;35.82;102985.69;4883176;29;1091;-45
2024/01/30 08:42:14;;;;;;;;;;;;;;;16.06;37.15;102990.72;4888145;29;1140;-48
2024/01/30 08:44:40;;;;;;;;;;;;;;;15.66;38.15;102993.78;4899881;29;1903;-46
2024/01/30 08:47:05;;;;;;;;;;;;;;;16.07;37.45;102995.97;4900420;29;1252;-43
2024/01/30 08:49:31;;;;;;;;;;;;;;;17.35;34.99;102993.09;4900149;29;1214;-44
2024/01/30 08:51:56;;;;;;;;;;;;;;;16.70;35.74;102997.28;4900328;29;1198;-44
2024/01/30 08:54:23;;;;;;;;;;;;;;;16.05;37.16;102994.31;4900393;29;1062;-44
2024/01/30 08:56:48;;;;;;;;;;;;;;;15.70;38.00;102991.91;4900520;29;1170;-48
2024/01/30 08:59:14;;;;;;;;;;;;;;;15.76;38.10;103007.63;4899710;29;1109;-45
2024/01/30 09:01:39;;;;;;;;;;;;;;;17.12;35.43;103000.16;4894068;29;1324;-45
2024/01/30 09:04:05;;;;;;;;;;;;;;;17.12;35.04;102993.06;4899429;29;1149;-47
2024/01/30 09:06:31;;;;;;;;;;;;;;;16.29;36.61;102989.91;4899968;29;1914;-45
2024/01/30 09:08:57;;;;;;;;;;;;;;;15.87;37.73;102991.31;4894956;29;1197;-48
2024/01/30 09:11:23;;;;;;;;;;;;;;;15.51;37.95;102988.06;4900279;29;1394;-45
2024/01/30 09:13:48;;;;;;;;;;;;;;;16.59;36.48;102992.38;4899487;29;1126;-49
2024/01/30 09:16:15;;;;;;;;;;;;;;;17.40;34.86;102990.25;4897567;29;1434;-44
2024/01/30 09:18:41;;;;;;;;;;;;;;;16.37;36.70;102986.97;4889184;29;1237;-47
2024/01/30 09:21:06;;;;;;;;;;;;;;;15.85;37.32;102985.22;4894328;29;1153;-44
2024/01/30 09:23:32;;;;;;;;;;;;;;;15.66;37.90;102988.47;4893008;29;1116;-42
2024/01/30 09:25:57;;;;;;;;;;;;;;;16.67;35.96;102977.91;4899552;29;1986;-48
2024/01/30 09:28:23;;;;;;;;;;;;;;;17.65;34.45;102987.41;4896109;29;2396;-45
2024/01/30 09:30:48;;;;;;;;;;;;;;;16.81;35.76;102972.09;4899218;29;2223;-48
2024/01/30 09:33:14;;;;;;;;;;;;;;;16.18;36.79;102958.44;4890972;29;2150;-47
2024/01/30 09:35:39;;;;;;;;;;;;;;;15.83;37.75;102971.97;4893920;29;1740;-52
2024/01/30 09:38:05;;;;;;;;;;;;;;;15.58;38.02;102964.00;4892213;29;2044;-49
2024/01/30 09:40:30;;;;;;;;;;;;;;;16.56;36.50;102959.72;4905370;29;1692;-47
2024/01/30 09:42:56;;;;;;;;;;;;;;;17.52;34.38;102968.44;4891141;29;1953;-45
2024/01/30 09:45:25;;;;;;;;;;;;;;;16.55;36.30;102952.69;4900873;29;1907;-50
2024/01/30 09:47:50;;;;;;;;;;;;;;;16.05;36.95;102947.38;4892728;29;1077;-47
2024/01/30 09:50:16;;;;;;;;;;;;;;;15.66;38.01;102959.28;4898983;29;1082;-48
2024/01/30 09:52:42;;;;;;;;;;;;;;;16.19;37.25;102954.84;4887704;29;895;-46
2024/01/30 09:55:08;;;;;;;;;;;;;;;17.41;34.89;102966.22;4913722;29;1082;-45
2024/01/30 09:57:34;;;;;;;;;;;;;;;16.81;35.65;102953.47;4901020;29;1476;-53
2024/01/30 09:59:59;;;;;;;;;;;;;;;16.16;36.73;102952.31;4914860;29;1344;-47
2024/01/30 10:02:25;;;;;;;;;;;;;;;15.84;37.52;102962.22;4897475;29;1293;-48
2024/01/30 10:04:51;;;;;;;;;;;;;;;15.74;37.79;102945.75;4899222;29;1910;-48
2024/01/30 10:07:17;;;;;;;;;;;;;;;17.16;35.17;102934.44;4901496;29;1046;-44
2024/01/30 10:09:42;;;;;;;;;;;;;;;16.97;35.49;102948.44;4900046;29;1079;-46
2024/01/30 10:12:11;;;;;;;;;;;;;;;16.19;36.88;102935.38;4890151;29;1174;-48
2024/01/30 10:14:40;;;;;;;;;;;;;;;15.78;37.60;102934.13;4884534;29;2305;-48
2024/01/30 10:17:07;;;;;;;;;;;;;;;15.55;38.08;102933.09;4883982;29;1040;-48
2024/01/30 10:19:32;;;;;;;;;;;;;;;16.86;35.63;102932.91;4896323;29;975;-47
2024/01/30 10:21:59;;;;;;;;;;;;;;;17.36;34.68;102922.97;4892024;29;1145;-49
2024/01/30 10:24:25;;;;;;;;;;;;;;;16.38;36.28;102920.50;4898269;29;2000;-48
2024/01/30 10:26:51;;;;;;;;;;;;;;;15.89;37.57;102918.69;4902384;29;1414;-46
2024/01/30 10:29:17;;;;;;;;;;;;;;;15.59;37.97;102925.91;4902594;29;891;-49
2024/01/30 10:31:42;;;;;;;;;;;;;;;16.32;36.71;102923.41;4902926;29;1126;-47
2024/01/30 10:34:08;;;;;;;;;;;;;;;17.42;34.70;102914.72;4890950;29;1406;-49
2024/01/30 10:36:33;;;;;;;;;;;;;;;16.65;35.76;102917.72;4911203;29;1130;-51
2024/01/30 10:38:59;;;;;;;;;;;;;;;16.00;37.18;102917.47;4894752;29;1176;-52
2024/01/30 10:41:26;;;;;;;;;;;;;;;15.72;37.57;102916.63;4890858;29;1078;-50
2024/01/30 10:43:55;;;;;;;;;;;;;;;15.74;37.65;102914.78;4899330;29;2440;-47
2024/01/30 10:46:22;;;;;;;;;;;;;;;17.16;35.24;102911.38;4894615;29;1907;-48
2024/01/30 10:48:51;;;;;;;;;;;;;;;16.88;35.61;102928.41;4902197;29;1184;-46
2024/01/30 10:51:16;;;;;;;;;;;;;;;16.12;36.93;102926.78;4890329;29;1035;-49
2024/01/30 10:53:43;;;;;;;;;;;;;;;15.73;37.65;102928.09;4901647;29;927;-46
2024/01/30 10:56:08;;;;;;;;;;;;;;;15.53;38.35;102922.53;4916785;29;1520;-48
2024/01/30 10:58:34;;;;;;;;;;;;;;;16.87;35.95;102930.19;4913872;29;1530;-47
2024/01/30 11:00:59;;;;;;;;;;;;;;;17.35;34.71;102926.59;4896020;29;1030;-50
2024/01/30 11:03:25;;;;;;;;;;;;;;;16.32;36.83;102917.22;4891889;29;1062;-48
2024/01/30 11:05:53;;;;;;;;;;;;;;;15.87;37.31;102923.19;4910610;29;1910;-45
2024/01/30 11:08:25;;;;;;;;;;;;;;;15.61;38.23;102929.38;4898109;29;1074;-48
2024/01/30 11:10:55;;;;;;;;;;;;;;;16.45;36.56;102917.63;4895446;29;1036;-46
2024/01/30 11:13:20;;;;;;;;;;;;;;;17.50;34.83;102915.28;4891929;29;1189;-49
2024/01/30 11:15:47;;;;;;;;;;;;;;;16.59;35.80;102917.09;4897647;29;2681;-49
2024/01/30 11:18:22;;;;;;;;;;;;;;;16.03;37.35;102909.41;4891258;29;1102;-48
2024/01/30 11:20:48;;;;;;;;;;;;;;;15.71;37.88;102900.75;4896195;29;1051;-45
2024/01/30 11:23:13;;;;;;;;;;;;;;;15.51;38.18;102916.44;4911779;29;1098;-43
2024/01/30 11:25:39;;;;;;;;;;;;;;;16.98;35.56;102908.47;4899099;29;1981;-45
2024/01/30 11:28:05;;;;;;;;;;;;;;;17.16;34.86;102906.06;4897965;29;1197;-46
2024/01/30 11:30:31;;;;;;;;;;;;;;;16.30;36.60;102898.66;4883042;29;1098;-48
2024/01/30 11:33:00;;;;;;;;;;;;;;;15.85;37.59;102895.81;4893574;29;1024;-46
2024/01/30 11:35:26;;;;;;;;;;;;;;;15.48;38.37;102905.06;4901862;29;1015;-46
2024/01/30 11:37:51;;;;;;;;;;;;;;;16.00;37.28;102897.09;4901844;29;1074;-48
2024/01/30 11:40:17;;;;;;;;;;;;;;;17.25;35.23;102892.38;4896023;29;1038;-45
2024/01/30 11:42:43;;;;;;;;;;;;;;;16.91;35.46;102898.16;4895121;29;1103;-43
2024/01/30 11:45:08;;;;;;;;;;;;;;;16.20;36.82;102884.03;4905777;29;2600;-48
2024/01/30 11:47:37;;;;;;;;;;;;;;;15.82;37.82;102887.97;4894524;29;1014;-50
2024/01/30 11:50:06;;;;;;;;;;;;;;;16.23;36.84;102887.41;4900725;29;1212;-46
2024/01/30 11:52:31;;;;;;;;;;;;;;;17.47;34.68;102888.81;4894196;29;1007;-50
2024/01/30 11:54:57;;;;;;;;;;;;;;;16.56;36.09;102891.53;4900889;29;1073;-47
2024/01/30 11:57:22;;;;;;;;;;;;;;;16.01;37.32;102879.38;4900264;29;1356;-48
2024/01/30 11:59:48;;;;;;;;;;;;;;;15.62;37.83;102878.03;4895377;29;1053;-47
2024/01/30 12:02:19;;;;;;;;;;;;;;;16.24;37.35;102875.88;4889739;29;1035;-52
2024/01/30 12:04:45;;;;;;;;;;;;;;;17.46;34.79;102871.13;4895611;29;1945;-47
2024/01/30 12:07:11;;;;;;;;;;;;;;;16.55;36.37;102875.66;4912901;29;1026;-47
2024/01/30 12:09:36;;;;;;;;;;;;;;;15.98;37.10;102875.03;4883150;29;1198;-46
2024/01/30 12:12:02;;;;;;;;;;;;;;;15.63;37.69;102870.03;4892850;29;1073;-47
2024/01/30 12:14:27;;;;;;;;;;;;;;;16.78;35.90;102877.41;4888234;29;2278;-47
2024/01/30 12:16:53;;;;;;;;;;;;;;;17.23;34.90;102870.28;4883364;29;1197;-47
2024/01/30 12:19:22;;;;;;;;;;;;;;;16.30;36.54;102871.28;4883428;29;1007;-45
2024/01/30 12:21:53;;;;;;;;;;;;;;;15.89;37.35;102876.22;4894686;29;1030;-48
2024/01/30 12:24:18;;;;;;;;;;;;;;;15.57;38.22;102870.25;4897951;29;1169;-46
2024/01/30 12:26:44;;;;;;;;;;;;;;;16.02;37.52;102868.72;4900816;29;1985;-45
2024/01/30 12:29:09;;;;;;;;;;;;;;;17.28;34.93;102869.22;4909479;29;1023;-47
2024/01/30 12:31:35;;;;;;;;;;;;;;;16.79;35.85;102873.81;4899973;29;1081;-51
2024/01/30 12:34:01;;;;;;;;;;;;;;;16.13;36.74;102876.25;4898052;29;1002;-48
2024/01/30 12:36:26;;;;;;;;;;;;;;;15.76;37.54;102872.28;4896410;29;1446;-49
2024/01/30 12:38:52;;;;;;;;;;;;;;;15.84;37.67;102872.88;4915100;29;1186;-47
2024/01/30 12:41:18;;;;;;;;;;;;;;;17.25;35.30;102870.22;4899203;29;1187;-51